createdAt,value
2018-04-28T00:00:05.598Z,6.07
2018-04-28T00:02:35.707Z,5.70
2018-04-28T00:05:03.741Z,5.10
2018-04-28T00:07:31.545Z,5.43
2018-04-28T00:09:59.363Z,5.70
2018-04-28T00:12:27.464Z,6.53
2018-04-28T00:14:55.499Z,5.67
2018-04-28T00:17:23.295Z,7.30
2018-04-28T00:19:51.089Z,6.93
2018-04-28T00:22:18.881Z,5.37
2018-04-28T00:28:03.594Z,6.10
2018-04-28T00:30:35.071Z,6.97
2018-04-28T00:36:06.009Z,6.40
2018-04-28T00:38:33.829Z,6.90
2018-04-28T00:41:01.639Z,7.10
2018-04-28T00:43:29.437Z,7.00
2018-04-28T00:45:58.888Z,6.80
2018-04-28T00:48:46.072Z,7.27
2018-04-28T00:51:16.160Z,5.80
2018-04-28T00:53:44.165Z,7.73
2018-04-28T00:56:11.963Z,7.63
2018-04-28T00:58:46.071Z,7.57
2018-04-28T01:01:17.409Z,7.90
2018-04-28T01:04:02.931Z,6.93
2018-04-28T01:06:30.981Z,6.80
2018-04-28T01:08:59.364Z,7.67
2018-04-28T01:11:29.706Z,6.53
2018-04-28T01:13:58.337Z,6.43
2018-04-28T01:16:28.738Z,7.83
2018-04-28T01:19:00.331Z,7.30
2018-04-28T01:21:34.440Z,7.40
2018-04-28T01:27:15.605Z,7.50
2018-04-28T01:30:06.550Z,6.87
2018-04-28T01:35:55.205Z,8.33
2018-04-28T01:38:37.325Z,8.53
2018-04-28T01:41:11.893Z,9.17
2018-04-28T01:43:56.250Z,8.10
2018-04-28T01:46:27.657Z,8.00
2018-04-28T01:48:56.192Z,8.97
2018-04-28T01:51:31.593Z,7.67
2018-04-28T01:54:17.152Z,9.10
2018-04-28T01:56:47.302Z,7.93
2018-04-28T01:59:15.104Z,8.87
2018-04-28T02:01:42.902Z,7.93
2018-04-28T02:04:11.435Z,9.10
2018-04-28T02:06:47.117Z,8.70
2018-04-28T02:09:15.637Z,8.10
2018-04-28T02:11:45.209Z,8.20
2018-04-28T02:17:12.050Z,9.70
2018-04-28T02:19:43.377Z,8.80
2018-04-28T02:25:18.125Z,9.47
2018-04-28T02:27:50.224Z,8.60
2018-04-28T02:30:19.600Z,8.40
2018-04-28T02:32:47.405Z,8.87
2018-04-28T02:35:36.617Z,9.97
2018-04-28T02:41:14.137Z,9.73
2018-04-28T02:43:53.459Z,8.70
2018-04-28T02:46:24.062Z,9.00
2018-04-28T02:48:58.622Z,9.77
2018-04-28T02:51:28.177Z,10.10
2018-04-28T02:53:57.817Z,10.30
2018-04-28T02:56:30.421Z,10.80
2018-04-28T02:59:04.668Z,9.60
2018-04-28T03:01:42.617Z,9.20
2018-04-28T03:04:11.200Z,10.93
2018-04-28T03:06:43.445Z,9.37
2018-04-28T03:09:12.263Z,11.00
2018-04-28T03:11:43.805Z,11.23
2018-04-28T03:14:19.305Z,9.43
2018-04-28T03:16:55.923Z,12.10
2018-04-28T03:19:24.669Z,11.37
2018-04-28T03:21:52.475Z,10.77
2018-04-28T03:24:32.789Z,9.87
2018-04-28T03:27:03.337Z,11.10
2018-04-28T03:29:34.775Z,10.27
2018-04-28T03:32:03.223Z,11.50
2018-04-28T03:34:36.882Z,10.03
2018-04-28T03:37:08.442Z,10.30
2018-04-28T03:39:40.733Z,11.47
2018-04-28T03:42:11.299Z,8.97
2018-04-28T03:44:44.558Z,9.03
2018-04-28T03:47:32.093Z,10.97
2018-04-28T03:50:00.127Z,8.77
2018-04-28T03:52:27.960Z,10.90
2018-04-28T03:54:57.084Z,9.90
2018-04-28T03:57:37.470Z,10.80
2018-04-28T04:00:16.828Z,11.60
2018-04-28T04:02:56.183Z,10.53
2018-04-28T04:08:42.101Z,10.63
2018-04-28T04:11:22.437Z,11.37
2018-04-28T04:17:17.544Z,12.80
2018-04-28T04:19:56.968Z,10.50
2018-04-28T04:25:50.863Z,9.83
2018-04-28T04:28:37.002Z,11.40
2018-04-28T04:31:14.138Z,10.30
2018-04-28T04:33:43.541Z,9.27
2018-04-28T04:36:16.819Z,9.50
2018-04-28T04:38:46.363Z,9.87
2018-04-28T04:41:29.600Z,8.90
2018-04-28T04:47:23.497Z,9.67
2018-04-28T04:53:15.134Z,10.10
2018-04-28T04:55:55.393Z,9.63
2018-04-28T05:01:56.224Z,10.03
2018-04-28T05:04:26.320Z,10.70
2018-04-28T05:10:35.094Z,8.73
2018-04-28T05:16:13.677Z,10.47
2018-04-28T05:18:53.429Z,10.10
2018-04-28T05:21:25.808Z,9.77
2018-04-28T05:24:04.368Z,9.83
2018-04-28T05:29:52.521Z,9.60
2018-04-28T05:32:28.112Z,11.23
2018-04-28T05:37:56.838Z,9.73
2018-04-28T05:40:36.259Z,10.60
2018-04-28T05:43:15.869Z,10.00
2018-04-28T05:45:55.452Z,11.50
2018-04-28T05:48:30.803Z,10.97
2018-04-28T05:51:04.307Z,10.30
2018-04-28T05:53:41.695Z,11.07
2018-04-28T05:59:43.601Z,10.00
2018-04-28T06:05:34.329Z,10.70
2018-04-28T06:08:39.577Z,10.23
2018-04-28T06:11:22.320Z,11.00
2018-04-28T06:14:01.561Z,12.30
2018-04-28T06:16:37.065Z,12.20
2018-04-28T06:19:10.658Z,10.50
2018-04-28T06:21:39.024Z,9.70
2018-04-28T06:24:07.426Z,11.83
2018-04-28T06:26:35.500Z,9.87
2018-04-28T06:29:03.544Z,10.87
2018-04-28T06:31:31.587Z,10.00
2018-04-28T06:33:59.635Z,10.00
2018-04-28T06:36:28.015Z,9.27
2018-04-28T06:38:55.837Z,9.97
2018-04-28T06:41:23.885Z,11.47
2018-04-28T06:43:52.392Z,11.03
2018-04-28T06:46:20.486Z,9.83
2018-04-28T06:48:48.559Z,11.27
2018-04-28T06:51:16.958Z,11.20
2018-04-28T06:53:45.359Z,11.17
2018-04-28T06:56:13.453Z,10.13
2018-04-28T06:58:41.586Z,10.30
2018-04-28T07:01:09.771Z,10.00
2018-04-28T07:03:37.813Z,10.90
2018-04-28T07:06:05.881Z,11.17
2018-04-28T07:08:34.253Z,9.43
2018-04-28T07:11:02.300Z,10.10
2018-04-28T07:13:32.475Z,13.20
2018-04-28T07:16:00.537Z,10.10
2018-04-28T07:18:28.614Z,10.37
2018-04-28T07:20:56.441Z,11.10
2018-04-28T07:23:24.679Z,10.57
2018-04-28T07:25:53.063Z,11.50
2018-04-28T07:28:20.869Z,10.33
2018-04-28T07:30:48.697Z,11.77
2018-04-28T07:33:16.737Z,10.10
2018-04-28T07:35:44.797Z,11.27
2018-04-28T07:38:12.604Z,10.37
2018-04-28T07:40:40.647Z,10.40
2018-04-28T07:43:08.692Z,11.00
2018-04-28T07:45:36.725Z,11.00
2018-04-28T07:48:04.765Z,10.90
2018-04-28T07:50:32.828Z,10.57
2018-04-28T07:53:01.666Z,12.03
2018-04-28T07:55:29.751Z,12.80
2018-04-28T07:57:58.126Z,14.23
2018-04-28T08:00:26.531Z,11.73
2018-04-28T08:02:54.744Z,13.33
2018-04-28T08:05:22.797Z,11.80
2018-04-28T08:07:51.254Z,12.83
2018-04-28T08:10:18.909Z,13.30
2018-04-28T08:12:47.004Z,12.37
2018-04-28T08:15:15.097Z,12.57
2018-04-28T08:17:43.060Z,11.90
2018-04-28T08:20:11.132Z,11.27
2018-04-28T08:22:39.818Z,12.80
2018-04-28T08:25:07.909Z,12.70
2018-04-28T08:27:35.962Z,13.40
2018-04-28T08:30:03.592Z,12.80
2018-04-28T08:32:31.663Z,11.20
2018-04-28T08:34:59.586Z,12.37
2018-04-28T08:37:27.813Z,12.63
2018-04-28T08:39:55.743Z,13.03
2018-04-28T08:42:23.780Z,11.70
2018-04-28T08:44:51.921Z,12.37
2018-04-28T08:47:20.328Z,13.00
2018-04-28T08:49:48.726Z,12.47
2018-04-28T08:52:17.118Z,11.27
2018-04-28T08:54:46.249Z,12.43
2018-04-28T08:57:14.635Z,11.60
2018-04-28T09:02:47.076Z,11.47
2018-04-28T09:05:15.465Z,11.80
2018-04-28T09:07:43.838Z,10.80
2018-04-28T09:10:12.237Z,9.77
2018-04-28T09:12:40.618Z,10.83
2018-04-28T09:15:09.000Z,11.97
2018-04-28T09:17:37.910Z,12.07
2018-04-28T09:20:06.481Z,12.77
2018-04-28T09:22:34.856Z,11.90
2018-04-28T09:25:02.998Z,12.00
2018-04-28T09:27:31.090Z,12.30
2018-04-28T09:29:59.466Z,11.90
2018-04-28T09:32:27.614Z,11.70
2018-04-28T09:34:55.999Z,10.07
2018-04-28T09:37:24.384Z,13.77
2018-04-28T09:39:52.794Z,11.80
2018-04-28T09:42:21.734Z,12.73
2018-04-28T09:44:50.109Z,10.00
2018-04-28T09:47:18.802Z,9.40
2018-04-28T09:49:47.184Z,9.73
2018-04-28T09:52:15.563Z,9.60
2018-04-28T09:54:43.966Z,11.03
2018-04-28T09:57:12.360Z,10.40
2018-04-28T09:59:40.734Z,9.60
2018-04-28T10:02:14.424Z,8.40
2018-04-28T10:04:42.823Z,9.80
2018-04-28T10:07:11.221Z,9.73
2018-04-28T10:09:39.618Z,9.30
2018-04-28T10:12:08.014Z,9.43
2018-04-28T10:14:36.382Z,8.57
2018-04-28T10:17:04.740Z,9.43
2018-04-28T10:19:33.112Z,7.20
2018-04-28T10:22:02.314Z,9.00
2018-04-28T10:24:30.677Z,9.67
2018-04-28T10:27:00.691Z,8.20
2018-04-28T10:29:29.170Z,8.73
2018-04-28T10:31:57.542Z,9.07
2018-04-28T10:34:25.923Z,9.07
2018-04-28T10:36:54.312Z,10.17
2018-04-28T10:39:23.029Z,8.53
2018-04-28T10:41:51.428Z,7.70
2018-04-28T10:44:19.822Z,8.27
2018-04-28T10:46:48.209Z,7.40
2018-04-28T10:49:16.599Z,7.10
2018-04-28T10:51:44.978Z,8.60
2018-04-28T10:54:13.363Z,7.63
2018-04-28T10:56:41.917Z,7.10
2018-04-28T10:59:10.289Z,6.03
2018-04-28T11:01:38.653Z,6.60
2018-04-28T11:04:07.017Z,6.60
2018-04-28T11:06:35.403Z,6.57
2018-04-28T11:09:03.339Z,4.40
2018-04-28T11:11:31.712Z,5.50
2018-04-28T11:14:00.094Z,5.40
2018-04-28T11:16:29.250Z,5.10
2018-04-28T11:18:57.622Z,5.57
2018-04-28T11:21:25.759Z,6.30
2018-04-28T11:23:53.890Z,4.90
2018-04-28T11:26:22.256Z,4.97
2018-04-28T11:28:50.413Z,5.43
2018-04-28T11:31:19.190Z,4.97
2018-04-28T11:33:47.577Z,5.37
2018-04-28T11:36:15.943Z,4.83
2018-04-28T11:38:44.314Z,5.53
2018-04-28T11:41:12.685Z,6.00
2018-04-28T11:43:41.141Z,4.93
2018-04-28T11:46:09.609Z,4.80
2018-04-28T11:48:37.985Z,4.80
2018-04-28T11:51:06.356Z,4.97
2018-04-28T11:53:35.656Z,5.43
2018-04-28T11:56:04.038Z,5.40
2018-04-28T11:58:32.406Z,4.43
2018-04-28T12:01:00.798Z,4.37
2018-04-28T12:03:29.170Z,5.30
2018-04-28T12:05:57.596Z,5.87
2018-04-28T12:08:26.559Z,4.80
2018-04-28T12:10:54.961Z,5.30
2018-04-28T12:13:23.352Z,5.40
2018-04-28T12:15:51.737Z,4.40
2018-04-28T12:18:20.122Z,4.80
2018-04-28T12:20:48.549Z,4.50
2018-04-28T12:23:16.912Z,4.53
2018-04-28T12:25:45.308Z,4.73
2018-04-28T12:28:13.714Z,5.20
2018-04-28T12:30:42.085Z,5.00
2018-04-28T12:33:10.471Z,4.27
2018-04-28T12:35:38.845Z,3.87
2018-04-28T12:38:07.229Z,4.80
2018-04-28T12:40:35.599Z,4.67
2018-04-28T12:43:03.999Z,4.43
2018-04-28T12:45:33.140Z,4.50
2018-04-28T12:48:01.305Z,4.60
2018-04-28T12:50:29.728Z,5.63
2018-04-28T12:52:58.407Z,5.43
2018-04-28T12:55:26.791Z,5.40
2018-04-28T12:57:55.164Z,4.83
2018-04-28T13:00:23.537Z,4.60
2018-04-28T13:02:51.923Z,5.70
2018-04-28T13:05:20.304Z,5.57
2018-04-28T13:07:48.681Z,4.60
2018-04-28T13:10:17.083Z,5.20
2018-04-28T13:12:45.444Z,4.80
2018-04-28T13:15:14.679Z,4.90
2018-04-28T13:17:43.058Z,5.53
2018-04-28T13:20:11.441Z,4.40
2018-04-28T13:22:39.839Z,4.83
2018-04-28T13:25:08.220Z,5.43
2018-04-28T13:27:36.599Z,5.80
2018-04-28T13:30:04.693Z,4.70
2018-04-28T13:32:33.728Z,5.60
2018-04-28T13:35:02.178Z,4.83
2018-04-28T13:37:30.618Z,5.30
2018-04-28T13:39:58.984Z,5.20
2018-04-28T13:42:27.354Z,5.50
2018-04-28T13:44:55.764Z,5.30
2018-04-28T13:47:24.147Z,5.93
2018-04-28T13:49:52.524Z,5.47
2018-04-28T13:52:20.907Z,5.90
2018-04-28T13:54:49.304Z,4.90
2018-04-28T13:57:17.677Z,4.97
2018-04-28T13:59:46.057Z,5.53
2018-04-28T14:02:14.443Z,5.20
2018-04-28T14:04:42.826Z,5.40
2018-04-28T14:07:11.200Z,5.97
2018-04-28T14:09:39.599Z,5.30
2018-04-28T14:12:07.589Z,6.00
2018-04-28T14:14:35.722Z,5.63
2018-04-28T14:17:04.088Z,5.23
2018-04-28T14:19:32.447Z,5.77
2018-04-28T14:22:00.816Z,6.07
2018-04-28T14:24:29.225Z,5.40
2018-04-28T14:26:58.024Z,5.20
2018-04-28T14:29:26.521Z,5.90
2018-04-28T14:31:54.904Z,5.30
2018-04-28T14:34:23.271Z,5.63
2018-04-28T14:36:51.657Z,5.90
2018-04-28T14:39:20.038Z,5.20
2018-04-28T14:41:48.413Z,7.17
2018-04-28T14:44:16.861Z,6.60
2018-04-28T14:46:46.439Z,5.90
2018-04-28T14:49:14.814Z,5.63
2018-04-28T14:51:43.771Z,6.90
2018-04-28T14:54:12.293Z,7.00
2018-04-28T14:56:40.682Z,6.97
2018-04-28T14:59:10.005Z,5.70
2018-04-28T15:01:38.373Z,6.60
2018-04-28T15:04:06.737Z,6.67
2018-04-28T15:06:35.101Z,5.70
2018-04-28T15:09:03.217Z,6.10
2018-04-28T15:11:31.602Z,6.27
2018-04-28T15:13:59.988Z,6.13
2018-04-28T15:16:28.369Z,6.30
2018-04-28T15:18:56.789Z,6.70
2018-04-28T15:21:25.823Z,6.50
2018-04-28T15:23:54.206Z,7.13
2018-04-28T15:26:22.590Z,6.20
2018-04-28T15:28:50.965Z,6.30
2018-04-28T15:31:19.358Z,7.07
2018-04-28T15:33:47.991Z,6.43
2018-04-28T15:36:16.387Z,6.87
2018-04-28T15:38:44.771Z,7.47
2018-04-28T15:41:13.274Z,6.40
2018-04-28T15:43:42.458Z,6.70
2018-04-28T15:46:10.846Z,6.67
2018-04-28T15:48:39.231Z,7.10
2018-04-28T15:51:07.625Z,7.17
2018-04-28T15:53:36.184Z,6.77
2018-04-28T15:56:04.557Z,6.77
2018-04-28T15:58:32.929Z,6.30
2018-04-28T16:01:01.304Z,6.87
2018-04-28T16:03:29.702Z,5.43
2018-04-28T16:05:58.070Z,6.80
2018-04-28T16:08:26.481Z,7.30
2018-04-28T16:10:54.868Z,6.47
2018-04-28T16:13:23.430Z,6.80
2018-04-28T16:15:53.832Z,6.27
2018-04-28T16:18:22.194Z,6.77
2018-04-28T16:20:50.627Z,6.07
2018-04-28T16:23:18.994Z,7.17
2018-04-28T16:25:47.410Z,7.10
2018-04-28T16:28:15.868Z,8.00
2018-04-28T16:30:44.276Z,7.03
2018-04-28T16:33:12.669Z,7.37
2018-04-28T16:35:41.044Z,8.77
2018-04-28T16:38:09.426Z,6.93
2018-04-28T16:40:37.797Z,6.83
2018-04-28T16:43:06.177Z,6.93
2018-04-28T16:45:34.557Z,8.13
2018-04-28T16:48:03.123Z,6.70
2018-04-28T16:50:31.512Z,6.67
2018-04-28T16:52:59.941Z,7.20
2018-04-28T16:55:28.338Z,7.20
2018-04-28T16:57:56.741Z,6.77
2018-04-28T17:00:25.109Z,7.63
2018-04-28T17:02:54.041Z,7.33
2018-04-28T17:05:22.491Z,7.70
2018-04-28T17:07:50.872Z,8.03
2018-04-28T17:10:19.279Z,7.90
2018-04-28T17:12:47.645Z,9.67
2018-04-28T17:15:16.020Z,9.20
2018-04-28T17:17:53.719Z,9.50
2018-04-28T17:20:22.124Z,8.67
2018-04-28T17:22:50.568Z,8.80
2018-04-28T17:25:18.978Z,9.13
2018-04-28T17:27:47.353Z,9.00
2018-04-28T17:30:15.400Z,7.87
2018-04-28T17:32:43.860Z,8.50
2018-04-28T17:35:12.233Z,8.47
2018-04-28T17:37:40.620Z,8.90
2018-04-28T17:40:09.709Z,13.13
2018-04-28T17:42:38.078Z,10.80
2018-04-28T17:45:07.101Z,10.60
2018-04-28T17:47:36.042Z,11.17
2018-04-28T17:50:08.926Z,10.53
2018-04-28T17:52:37.340Z,9.77
2018-04-28T17:55:06.156Z,7.87
2018-04-28T17:57:34.585Z,8.80
2018-04-28T18:00:02.956Z,9.77
2018-04-28T18:02:32.135Z,11.20
2018-04-28T18:05:00.747Z,11.57
2018-04-28T18:07:29.134Z,11.40
2018-04-28T18:09:57.504Z,11.43
2018-04-28T18:12:25.873Z,11.87
2018-04-28T18:14:54.240Z,8.67
2018-04-28T18:17:22.618Z,10.83
2018-04-28T18:19:50.989Z,10.40
2018-04-28T18:22:19.348Z,8.47
2018-04-28T18:24:47.734Z,9.53
2018-04-28T18:27:16.107Z,9.17
2018-04-28T18:29:44.474Z,7.83
2018-04-28T18:32:12.853Z,8.27
2018-04-28T18:34:41.236Z,8.77
2018-04-28T18:37:09.993Z,9.13
2018-04-28T18:39:38.397Z,8.20
2018-04-28T18:42:06.802Z,9.50
2018-04-28T18:44:35.525Z,8.60
2018-04-28T18:47:03.888Z,8.60
2018-04-28T18:49:32.305Z,7.83
2018-04-28T18:52:00.715Z,8.30
2018-04-28T18:54:29.096Z,9.03
2018-04-28T18:56:57.238Z,8.43
2018-04-28T18:59:25.671Z,8.30
2018-04-28T19:01:54.213Z,9.83
2018-04-28T19:04:22.581Z,8.40
2018-04-28T19:06:50.966Z,10.37
2018-04-28T19:09:20.074Z,8.83
2018-04-28T19:11:48.468Z,9.50
2018-04-28T19:14:16.807Z,9.80
2018-04-28T19:16:45.490Z,9.77
2018-04-28T19:19:13.890Z,8.23
2018-04-28T19:21:42.277Z,8.57
2018-04-28T19:24:10.651Z,8.73
2018-04-28T19:26:39.033Z,8.27
2018-04-28T19:29:07.402Z,9.20
2018-04-28T19:31:35.768Z,8.83
2018-04-28T19:34:04.147Z,9.60
2018-04-28T19:36:32.529Z,8.63
2018-04-28T19:39:00.902Z,9.60
2018-04-28T19:41:29.277Z,8.70
2018-04-28T19:43:57.434Z,8.03
2018-04-28T19:46:25.816Z,9.50
2018-04-28T19:48:54.190Z,8.90
2018-04-28T19:51:22.345Z,8.70
2018-04-28T19:53:50.823Z,8.10
2018-04-28T19:56:19.307Z,8.00
2018-04-28T19:58:48.258Z,8.73
2018-04-28T20:01:16.628Z,9.33
2018-04-28T20:03:45.054Z,10.13
2018-04-28T20:06:13.447Z,9.50
2018-04-28T20:08:41.825Z,10.20
2018-04-28T20:11:10.224Z,9.20
2018-04-28T20:13:38.615Z,10.30
2018-04-28T20:16:06.993Z,8.80
2018-04-28T20:18:35.368Z,9.33
2018-04-28T20:21:03.748Z,9.13
2018-04-28T20:23:44.231Z,9.20
2018-04-28T20:26:12.625Z,10.00
2018-04-28T20:28:40.989Z,9.40
2018-04-28T20:31:10.086Z,9.07
2018-04-28T20:33:38.466Z,8.40
2018-04-28T20:36:06.888Z,7.90
2018-04-28T20:38:35.668Z,10.60
2018-04-28T20:41:04.057Z,8.73
2018-04-28T20:43:32.440Z,9.10
2018-04-28T20:46:00.868Z,9.60
2018-04-28T20:48:29.328Z,8.33
2018-04-28T20:50:57.706Z,9.30
2018-04-28T20:53:26.161Z,8.70
2018-04-28T20:55:54.557Z,8.63
2018-04-28T20:58:22.960Z,8.30
2018-04-28T21:00:51.349Z,9.10
2018-04-28T21:03:19.719Z,8.90
2018-04-28T21:05:48.114Z,9.63
2018-04-28T21:08:16.488Z,9.20
2018-04-28T21:10:44.888Z,8.77
2018-04-28T21:13:13.250Z,8.87
2018-04-28T21:15:41.624Z,8.07
2018-04-28T21:18:10.030Z,9.00
2018-04-28T21:20:38.406Z,9.37
2018-04-28T21:23:06.816Z,9.30
2018-04-28T21:25:35.190Z,9.70
2018-04-28T21:28:03.581Z,9.03
2018-04-28T21:30:31.969Z,8.70
2018-04-28T21:33:00.377Z,9.03
2018-04-28T21:35:28.929Z,9.80
2018-04-28T21:37:57.321Z,9.70
2018-04-28T21:40:25.701Z,8.80
2018-04-28T21:42:54.067Z,10.03
2018-04-28T21:45:22.211Z,9.60
2018-04-28T21:47:50.588Z,9.03
2018-04-28T21:50:18.967Z,9.20
2018-04-28T21:52:47.353Z,9.97
2018-04-28T21:55:16.328Z,10.60
2018-04-28T21:57:44.716Z,11.13
2018-04-28T22:00:13.128Z,10.57
2018-04-28T22:02:41.497Z,8.43
2018-04-28T22:05:17.378Z,8.73
2018-04-28T22:07:45.759Z,9.57
2018-04-28T22:10:17.129Z,9.50
2018-04-28T22:12:45.549Z,8.97
2018-04-28T22:17:48.427Z,10.03
2018-04-28T22:20:17.065Z,10.57
2018-04-28T22:22:45.442Z,9.30
2018-04-28T22:25:15.012Z,10.47
2018-04-28T22:27:43.433Z,8.67
2018-04-28T22:30:16.870Z,9.47
2018-04-28T22:32:45.276Z,9.17
2018-04-28T22:35:13.777Z,8.47
2018-04-28T22:37:42.164Z,10.10
2018-04-28T22:40:21.805Z,7.83
2018-04-28T22:42:50.176Z,8.27
2018-04-28T22:45:18.671Z,8.13
2018-04-28T22:47:47.089Z,8.60
2018-04-28T22:50:17.047Z,7.60
2018-04-28T22:52:45.441Z,9.00
2018-04-28T22:55:13.835Z,8.43
2018-04-28T22:57:42.209Z,9.10
2018-04-28T23:00:15.052Z,8.33
2018-04-28T23:02:43.453Z,8.00
2018-04-28T23:05:15.498Z,8.23
2018-04-28T23:07:43.869Z,9.17
2018-04-28T23:10:16.493Z,9.87
2018-04-28T23:12:44.976Z,8.70
2018-04-28T23:15:14.653Z,9.93
2018-04-28T23:17:43.036Z,8.50
2018-04-28T23:20:11.412Z,8.97
2018-04-28T23:22:39.795Z,8.37
2018-04-28T23:25:12.077Z,8.80
2018-04-28T23:27:40.459Z,8.97
2018-04-28T23:30:13.404Z,9.33
2018-04-28T23:32:41.817Z,8.97
2018-04-28T23:35:10.215Z,8.30
2018-04-28T23:37:38.630Z,8.70
2018-04-28T23:40:15.125Z,8.80
2018-04-28T23:42:43.511Z,8.20
2018-04-28T23:45:12.602Z,8.27
2018-04-28T23:47:40.987Z,8.07
2018-04-28T23:50:16.472Z,8.90
2018-04-28T23:52:44.625Z,7.30
2018-04-28T23:55:14.291Z,9.30
2018-04-28T23:57:42.665Z,8.47
